Terminal Aerodrome Forecast
Issued by NWS

Home | Current Version | Previous Version | Text Only | Print | Product List | Glossary On
Versions: 1 2 3 4 5 6 7 8 9 10 11 12
986
FTUS44 KEPZ 292340
TAFLRU
TAF
KLRU 292340Z 3000/3024 13010KT P6SM FEW060 SCT100 BKN140
     FM300700 11009KT P6SM BKN050 OVC120
      TEMPO 3008/3012 VRB15G25KT -TSRA BKN050CB BKN120
     FM301200 07009KT P6SM VCSH SCT050 BKN120 OVC180
     FM301900 15010KT P6SM SCT060 BKN120 BKN180=

USA.gov is the U.S. government's official web portal to all federal, state and local government web resources and services.